sensor_id;sensor_type;location;lat;lon;timestamp;P1;durP1;ratioP1;P2;durP2;ratioP2
77409;SDS011;66481;51.332;22.804;2023-12-20T00:02:09;18.17;;;9.77;;
77409;SDS011;66481;51.332;22.804;2023-12-20T00:06:11;18.80;;;10.25;;
77409;SDS011;66481;51.332;22.804;2023-12-20T00:10:12;17.25;;;9.68;;
77409;SDS011;66481;51.332;22.804;2023-12-20T00:14:13;17.67;;;9.73;;
77409;SDS011;66481;51.332;22.804;2023-12-20T00:18:15;14.30;;;9.07;;
77409;SDS011;66481;51.332;22.804;2023-12-20T00:22:16;22.60;;;10.98;;
77409;SDS011;66481;51.332;22.804;2023-12-20T00:26:17;17.67;;;10.30;;
77409;SDS011;66481;51.332;22.804;2023-12-20T00:30:18;22.08;;;9.68;;
77409;SDS011;66481;51.332;22.804;2023-12-20T00:34:19;16.25;;;10.25;;
77409;SDS011;66481;51.332;22.804;2023-12-20T00:38:20;20.33;;;10.23;;
77409;SDS011;66481;51.332;22.804;2023-12-20T00:42:21;17.25;;;9.45;;
77409;SDS011;66481;51.332;22.804;2023-12-20T00:46:22;16.48;;;9.70;;
77409;SDS011;66481;51.332;22.804;2023-12-20T00:50:23;21.92;;;10.43;;
77409;SDS011;66481;51.332;22.804;2023-12-20T00:54:24;17.63;;;10.57;;
77409;SDS011;66481;51.332;22.804;2023-12-20T00:58:26;16.15;;;9.15;;
77409;SDS011;66481;51.332;22.804;2023-12-20T01:02:28;18.27;;;10.15;;
77409;SDS011;66481;51.332;22.804;2023-12-20T01:06:29;18.27;;;10.77;;
77409;SDS011;66481;51.332;22.804;2023-12-20T01:10:31;18.17;;;9.38;;
77409;SDS011;66481;51.332;22.804;2023-12-20T01:14:32;22.38;;;10.85;;
77409;SDS011;66481;51.332;22.804;2023-12-20T01:18:33;17.40;;;10.05;;
77409;SDS011;66481;51.332;22.804;2023-12-20T01:22:35;15.45;;;10.35;;
77409;SDS011;66481;51.332;22.804;2023-12-20T01:26:36;22.65;;;10.75;;
77409;SDS011;66481;51.332;22.804;2023-12-20T01:30:37;20.67;;;10.50;;
77409;SDS011;66481;51.332;22.804;2023-12-20T01:34:38;18.15;;;10.25;;
77409;SDS011;66481;51.332;22.804;2023-12-20T01:38:39;20.15;;;10.63;;
77409;SDS011;66481;51.332;22.804;2023-12-20T01:42:40;22.63;;;10.57;;
77409;SDS011;66481;51.332;22.804;2023-12-20T01:46:41;17.58;;;10.15;;
77409;SDS011;66481;51.332;22.804;2023-12-20T01:50:43;22.38;;;11.18;;
77409;SDS011;66481;51.332;22.804;2023-12-20T01:54:46;19.33;;;11.00;;
77409;SDS011;66481;51.332;22.804;2023-12-20T01:58:48;20.65;;;9.85;;
77409;SDS011;66481;51.332;22.804;2023-12-20T02:02:49;20.83;;;10.82;;
77409;SDS011;66481;51.332;22.804;2023-12-20T02:06:53;18.60;;;9.93;;
77409;SDS011;66481;51.332;22.804;2023-12-20T02:10:56;17.75;;;9.60;;
77409;SDS011;66481;51.332;22.804;2023-12-20T02:14:57;18.10;;;11.20;;
77409;SDS011;66481;51.332;22.804;2023-12-20T02:18:59;19.70;;;11.05;;
77409;SDS011;66481;51.332;22.804;2023-12-20T02:23:00;17.83;;;12.13;;
77409;SDS011;66481;51.332;22.804;2023-12-20T02:27:00;21.05;;;11.88;;
77409;SDS011;66481;51.332;22.804;2023-12-20T02:31:02;20.90;;;11.05;;
77409;SDS011;66481;51.332;22.804;2023-12-20T02:35:03;20.58;;;11.23;;
77409;SDS011;66481;51.332;22.804;2023-12-20T02:39:05;20.60;;;10.52;;
77409;SDS011;66481;51.332;22.804;2023-12-20T02:43:06;19.17;;;10.82;;
77409;SDS011;66481;51.332;22.804;2023-12-20T02:47:07;20.88;;;11.88;;
77409;SDS011;66481;51.332;22.804;2023-12-20T02:51:08;21.10;;;11.27;;
77409;SDS011;66481;51.332;22.804;2023-12-20T02:55:09;19.65;;;10.30;;
77409;SDS011;66481;51.332;22.804;2023-12-20T02:59:11;18.42;;;11.25;;
77409;SDS011;66481;51.332;22.804;2023-12-20T03:03:12;17.48;;;10.50;;
77409;SDS011;66481;51.332;22.804;2023-12-20T03:07:14;22.27;;;12.45;;
77409;SDS011;66481;51.332;22.804;2023-12-20T03:11:14;17.38;;;10.20;;
77409;SDS011;66481;51.332;22.804;2023-12-20T03:15:15;15.90;;;9.65;;
77409;SDS011;66481;51.332;22.804;2023-12-20T03:19:17;21.40;;;12.63;;
77409;SDS011;66481;51.332;22.804;2023-12-20T03:23:19;18.30;;;9.88;;
77409;SDS011;66481;51.332;22.804;2023-12-20T03:27:20;18.95;;;9.55;;
77409;SDS011;66481;51.332;22.804;2023-12-20T03:31:21;19.73;;;10.55;;
77409;SDS011;66481;51.332;22.804;2023-12-20T03:35:22;23.20;;;11.80;;
77409;SDS011;66481;51.332;22.804;2023-12-20T03:39:23;22.80;;;12.20;;
77409;SDS011;66481;51.332;22.804;2023-12-20T03:43:24;19.05;;;10.23;;
77409;SDS011;66481;51.332;22.804;2023-12-20T03:47:25;24.25;;;12.75;;
77409;SDS011;66481;51.332;22.804;2023-12-20T03:51:26;18.23;;;11.02;;
77409;SDS011;66481;51.332;22.804;2023-12-20T03:55:27;23.50;;;11.90;;
77409;SDS011;66481;51.332;22.804;2023-12-20T03:59:28;23.10;;;12.07;;
77409;SDS011;66481;51.332;22.804;2023-12-20T04:03:29;21.63;;;12.15;;
77409;SDS011;66481;51.332;22.804;2023-12-20T04:07:30;21.52;;;11.27;;
77409;SDS011;66481;51.332;22.804;2023-12-20T04:11:31;19.20;;;9.55;;
77409;SDS011;66481;51.332;22.804;2023-12-20T04:15:32;19.58;;;10.82;;
77409;SDS011;66481;51.332;22.804;2023-12-20T04:19:34;19.90;;;9.70;;
77409;SDS011;66481;51.332;22.804;2023-12-20T04:23:35;23.73;;;10.25;;
77409;SDS011;66481;51.332;22.804;2023-12-20T04:27:36;22.52;;;12.20;;
77409;SDS011;66481;51.332;22.804;2023-12-20T04:31:37;19.20;;;11.88;;
77409;SDS011;66481;51.332;22.804;2023-12-20T04:35:38;19.13;;;9.70;;
77409;SDS011;66481;51.332;22.804;2023-12-20T04:39:41;21.50;;;11.05;;
77409;SDS011;66481;51.332;22.804;2023-12-20T04:43:42;29.63;;;13.60;;
77409;SDS011;66481;51.332;22.804;2023-12-20T04:47:43;26.73;;;13.73;;
77409;SDS011;66481;51.332;22.804;2023-12-20T04:51:44;22.25;;;12.18;;
77409;SDS011;66481;51.332;22.804;2023-12-20T04:55:45;23.40;;;13.40;;
77409;SDS011;66481;51.332;22.804;2023-12-20T04:59:46;22.92;;;13.15;;
77409;SDS011;66481;51.332;22.804;2023-12-20T05:03:47;23.58;;;12.35;;
77409;SDS011;66481;51.332;22.804;2023-12-20T05:07:48;29.90;;;16.85;;
77409;SDS011;66481;51.332;22.804;2023-12-20T05:11:49;24.90;;;13.73;;
77409;SDS011;66481;51.332;22.804;2023-12-20T05:15:50;20.05;;;12.10;;
77409;SDS011;66481;51.332;22.804;2023-12-20T05:19:52;29.33;;;12.80;;
77409;SDS011;66481;51.332;22.804;2023-12-20T05:23:53;18.95;;;12.23;;
77409;SDS011;66481;51.332;22.804;2023-12-20T05:27:54;24.45;;;12.13;;
77409;SDS011;66481;51.332;22.804;2023-12-20T05:31:57;28.15;;;14.52;;
77409;SDS011;66481;51.332;22.804;2023-12-20T05:35:58;24.45;;;12.15;;
77409;SDS011;66481;51.332;22.804;2023-12-20T05:39:59;31.92;;;15.25;;
77409;SDS011;66481;51.332;22.804;2023-12-20T05:44:01;34.75;;;17.10;;
77409;SDS011;66481;51.332;22.804;2023-12-20T05:48:02;29.67;;;15.55;;
77409;SDS011;66481;51.332;22.804;2023-12-20T05:52:03;29.75;;;15.00;;
77409;SDS011;66481;51.332;22.804;2023-12-20T05:56:05;30.00;;;15.05;;
77409;SDS011;66481;51.332;22.804;2023-12-20T06:00:06;29.42;;;13.93;;
77409;SDS011;66481;51.332;22.804;2023-12-20T06:04:08;28.60;;;15.60;;
77409;SDS011;66481;51.332;22.804;2023-12-20T06:08:10;32.92;;;16.30;;
77409;SDS011;66481;51.332;22.804;2023-12-20T06:12:10;28.65;;;15.48;;
77409;SDS011;66481;51.332;22.804;2023-12-20T06:16:12;31.92;;;14.82;;
77409;SDS011;66481;51.332;22.804;2023-12-20T06:20:13;28.60;;;14.52;;
77409;SDS011;66481;51.332;22.804;2023-12-20T06:24:14;28.15;;;15.60;;
77409;SDS011;66481;51.332;22.804;2023-12-20T06:28:16;29.48;;;15.30;;
77409;SDS011;66481;51.332;22.804;2023-12-20T06:32:17;26.08;;;13.45;;
77409;SDS011;66481;51.332;22.804;2023-12-20T06:36:21;35.38;;;18.77;;
77409;SDS011;66481;51.332;22.804;2023-12-20T06:40:22;33.30;;;16.48;;
77409;SDS011;66481;51.332;22.804;2023-12-20T06:44:23;28.65;;;16.02;;
77409;SDS011;66481;51.332;22.804;2023-12-20T06:48:24;28.77;;;15.38;;
77409;SDS011;66481;51.332;22.804;2023-12-20T06:52:25;28.77;;;16.65;;
77409;SDS011;66481;51.332;22.804;2023-12-20T06:56:26;29.10;;;17.02;;
77409;SDS011;66481;51.332;22.804;2023-12-20T07:00:27;25.65;;;13.77;;
77409;SDS011;66481;51.332;22.804;2023-12-20T07:04:28;23.90;;;13.50;;
77409;SDS011;66481;51.332;22.804;2023-12-20T07:08:29;23.23;;;14.00;;
77409;SDS011;66481;51.332;22.804;2023-12-20T07:12:30;24.42;;;13.23;;
77409;SDS011;66481;51.332;22.804;2023-12-20T07:16:31;24.80;;;12.40;;
77409;SDS011;66481;51.332;22.804;2023-12-20T07:20:33;24.10;;;12.95;;
77409;SDS011;66481;51.332;22.804;2023-12-20T07:24:34;25.13;;;14.07;;
77409;SDS011;66481;51.332;22.804;2023-12-20T07:28:36;27.67;;;14.45;;
77409;SDS011;66481;51.332;22.804;2023-12-20T07:32:37;30.70;;;15.80;;
77409;SDS011;66481;51.332;22.804;2023-12-20T07:36:39;29.55;;;16.77;;
77409;SDS011;66481;51.332;22.804;2023-12-20T07:40:41;34.45;;;19.25;;
77409;SDS011;66481;51.332;22.804;2023-12-20T07:44:42;33.28;;;17.17;;
77409;SDS011;66481;51.332;22.804;2023-12-20T07:48:43;28.95;;;14.63;;
77409;SDS011;66481;51.332;22.804;2023-12-20T07:52:44;31.83;;;18.35;;
77409;SDS011;66481;51.332;22.804;2023-12-20T07:56:46;28.40;;;15.27;;
77409;SDS011;66481;51.332;22.804;2023-12-20T08:00:47;29.55;;;15.40;;
77409;SDS011;66481;51.332;22.804;2023-12-20T08:04:48;23.00;;;14.43;;
77409;SDS011;66481;51.332;22.804;2023-12-20T09:05:41;28.75;;;14.32;;
77409;SDS011;66481;51.332;22.804;2023-12-20T09:09:42;25.05;;;12.15;;
77409;SDS011;66481;51.332;22.804;2023-12-20T09:13:44;27.80;;;13.60;;
77409;SDS011;66481;51.332;22.804;2023-12-20T09:17:45;23.42;;;13.40;;
77409;SDS011;66481;51.332;22.804;2023-12-20T09:21:47;24.50;;;13.43;;
77409;SDS011;66481;51.332;22.804;2023-12-20T09:25:49;23.40;;;12.73;;
77409;SDS011;66481;51.332;22.804;2023-12-20T09:29:50;20.80;;;12.63;;
77409;SDS011;66481;51.332;22.804;2023-12-20T09:33:51;22.08;;;11.68;;
77409;SDS011;66481;51.332;22.804;2023-12-20T09:37:52;27.67;;;14.38;;
77409;SDS011;66481;51.332;22.804;2023-12-20T09:46:05;23.25;;;11.85;;
77409;SDS011;66481;51.332;22.804;2023-12-20T09:50:10;20.77;;;12.00;;
77409;SDS011;66481;51.332;22.804;2023-12-20T09:54:16;26.38;;;14.52;;
77409;SDS011;66481;51.332;22.804;2023-12-20T09:58:19;25.70;;;14.25;;
77409;SDS011;66481;51.332;22.804;2023-12-20T10:02:20;24.08;;;13.55;;
77409;SDS011;66481;51.332;22.804;2023-12-20T10:06:27;25.65;;;14.20;;
77409;SDS011;66481;51.332;22.804;2023-12-20T10:10:29;26.17;;;14.25;;
77409;SDS011;66481;51.332;22.804;2023-12-20T10:14:32;30.00;;;15.20;;
77409;SDS011;66481;51.332;22.804;2023-12-20T10:18:33;29.23;;;14.60;;
77409;SDS011;66481;51.332;22.804;2023-12-20T10:22:35;26.95;;;14.48;;
77409;SDS011;66481;51.332;22.804;2023-12-20T10:26:36;29.27;;;14.85;;
77409;SDS011;66481;51.332;22.804;2023-12-20T10:30:38;35.45;;;17.42;;
77409;SDS011;66481;51.332;22.804;2023-12-20T10:34:41;27.35;;;14.55;;
77409;SDS011;66481;51.332;22.804;2023-12-20T10:38:42;23.70;;;13.13;;
77409;SDS011;66481;51.332;22.804;2023-12-20T10:42:43;21.85;;;12.43;;
77409;SDS011;66481;51.332;22.804;2023-12-20T10:46:45;26.73;;;13.45;;
77409;SDS011;66481;51.332;22.804;2023-12-20T10:50:53;23.23;;;11.98;;
77409;SDS011;66481;51.332;22.804;2023-12-20T10:54:56;20.63;;;12.05;;
77409;SDS011;66481;51.332;22.804;2023-12-20T10:58:57;20.80;;;10.80;;
77409;SDS011;66481;51.332;22.804;2023-12-20T11:03:03;18.00;;;10.45;;
77409;SDS011;66481;51.332;22.804;2023-12-20T11:07:08;28.02;;;17.40;;
77409;SDS011;66481;51.332;22.804;2023-12-20T11:15:21;21.60;;;12.38;;
77409;SDS011;66481;51.332;22.804;2023-12-20T11:19:22;27.80;;;14.63;;
77409;SDS011;66481;51.332;22.804;2023-12-20T11:23:24;25.73;;;12.48;;
77409;SDS011;66481;51.332;22.804;2023-12-20T11:27:25;22.33;;;12.95;;
77409;SDS011;66481;51.332;22.804;2023-12-20T11:31:26;22.75;;;11.77;;
77409;SDS011;66481;51.332;22.804;2023-12-20T11:35:27;19.05;;;9.88;;
77409;SDS011;66481;51.332;22.804;2023-12-20T11:39:29;18.48;;;10.07;;
77409;SDS011;66481;51.332;22.804;2023-12-20T11:43:32;16.77;;;10.23;;
77409;SDS011;66481;51.332;22.804;2023-12-20T11:47:36;18.85;;;9.43;;
77409;SDS011;66481;51.332;22.804;2023-12-20T11:51:40;15.75;;;7.88;;
77409;SDS011;66481;51.332;22.804;2023-12-20T11:59:43;8.07;;;4.00;;
77409;SDS011;66481;51.332;22.804;2023-12-20T12:03:45;4.28;;;2.95;;
77409;SDS011;66481;51.332;22.804;2023-12-20T12:07:46;3.33;;;3.03;;
77409;SDS011;66481;51.332;22.804;2023-12-20T12:11:47;5.93;;;3.35;;
77409;SDS011;66481;51.332;22.804;2023-12-20T12:15:48;4.70;;;2.88;;
77409;SDS011;66481;51.332;22.804;2023-12-20T12:19:51;6.07;;;3.00;;
77409;SDS011;66481;51.332;22.804;2023-12-20T12:24:08;4.68;;;2.97;;
77409;SDS011;66481;51.332;22.804;2023-12-20T12:28:10;4.78;;;3.10;;
77409;SDS011;66481;51.332;22.804;2023-12-20T12:32:12;5.38;;;3.33;;
77409;SDS011;66481;51.332;22.804;2023-12-20T12:36:13;5.85;;;3.63;;
77409;SDS011;66481;51.332;22.804;2023-12-20T12:40:16;5.70;;;3.25;;
77409;SDS011;66481;51.332;22.804;2023-12-20T12:44:19;4.95;;;3.28;;
77409;SDS011;66481;51.332;22.804;2023-12-20T12:48:23;5.43;;;3.00;;
77409;SDS011;66481;51.332;22.804;2023-12-20T12:52:24;4.47;;;2.53;;
77409;SDS011;66481;51.332;22.804;2023-12-20T12:56:27;3.70;;;1.80;;
77409;SDS011;66481;51.332;22.804;2023-12-20T13:00:28;3.83;;;1.83;;
77409;SDS011;66481;51.332;22.804;2023-12-20T13:04:30;3.22;;;1.92;;
77409;SDS011;66481;51.332;22.804;2023-12-20T13:08:32;3.38;;;1.90;;
77409;SDS011;66481;51.332;22.804;2023-12-20T13:12:37;3.97;;;1.92;;
77409;SDS011;66481;51.332;22.804;2023-12-20T13:16:39;3.22;;;2.00;;
77409;SDS011;66481;51.332;22.804;2023-12-20T13:20:41;4.35;;;2.03;;
77409;SDS011;66481;51.332;22.804;2023-12-20T13:24:44;2.60;;;1.83;;
77409;SDS011;66481;51.332;22.804;2023-12-20T13:28:46;2.17;;;1.80;;
77409;SDS011;66481;51.332;22.804;2023-12-20T13:32:48;2.75;;;1.33;;
77409;SDS011;66481;51.332;22.804;2023-12-20T13:36:49;2.78;;;1.70;;
77409;SDS011;66481;51.332;22.804;2023-12-20T13:40:51;3.13;;;1.80;;
77409;SDS011;66481;51.332;22.804;2023-12-20T13:44:56;2.95;;;1.42;;
77409;SDS011;66481;51.332;22.804;2023-12-20T13:48:58;3.17;;;2.05;;
77409;SDS011;66481;51.332;22.804;2023-12-20T13:53:00;2.75;;;2.15;;
77409;SDS011;66481;51.332;22.804;2023-12-20T13:57:02;2.85;;;1.85;;
77409;SDS011;66481;51.332;22.804;2023-12-20T14:01:04;3.90;;;2.30;;
77409;SDS011;66481;51.332;22.804;2023-12-20T14:05:06;3.45;;;2.60;;
77409;SDS011;66481;51.332;22.804;2023-12-20T14:09:07;4.32;;;2.33;;
77409;SDS011;66481;51.332;22.804;2023-12-20T14:13:08;4.15;;;1.92;;
77409;SDS011;66481;51.332;22.804;2023-12-20T14:17:12;2.30;;;2.10;;
77409;SDS011;66481;51.332;22.804;2023-12-20T14:21:14;4.38;;;1.73;;
77409;SDS011;66481;51.332;22.804;2023-12-20T14:25:15;5.07;;;2.08;;
77409;SDS011;66481;51.332;22.804;2023-12-20T14:29:17;2.65;;;1.52;;
77409;SDS011;66481;51.332;22.804;2023-12-20T14:33:19;3.45;;;2.45;;
77409;SDS011;66481;51.332;22.804;2023-12-20T14:37:22;1.85;;;1.33;;
77409;SDS011;66481;51.332;22.804;2023-12-20T14:41:24;2.67;;;1.42;;
77409;SDS011;66481;51.332;22.804;2023-12-20T14:45:25;2.25;;;1.52;;
77409;SDS011;66481;51.332;22.804;2023-12-20T14:49:27;7.10;;;3.10;;
77409;SDS011;66481;51.332;22.804;2023-12-20T14:53:31;2.63;;;1.98;;
77409;SDS011;66481;51.332;22.804;2023-12-20T14:57:32;5.22;;;2.28;;
77409;SDS011;66481;51.332;22.804;2023-12-20T15:01:34;2.67;;;2.08;;
77409;SDS011;66481;51.332;22.804;2023-12-20T15:05:35;4.03;;;2.03;;
77409;SDS011;66481;51.332;22.804;2023-12-20T15:09:36;5.07;;;3.03;;
77409;SDS011;66481;51.332;22.804;2023-12-20T15:13:38;6.70;;;3.70;;
77409;SDS011;66481;51.332;22.804;2023-12-20T15:17:41;5.53;;;3.22;;
77409;SDS011;66481;51.332;22.804;2023-12-20T15:21:44;6.03;;;3.33;;
77409;SDS011;66481;51.332;22.804;2023-12-20T15:25:45;5.25;;;2.65;;
77409;SDS011;66481;51.332;22.804;2023-12-20T15:29:46;4.10;;;2.60;;
77409;SDS011;66481;51.332;22.804;2023-12-20T15:33:47;4.47;;;1.92;;
77409;SDS011;66481;51.332;22.804;2023-12-20T15:37:49;5.13;;;3.30;;
77409;SDS011;66481;51.332;22.804;2023-12-20T15:41:51;5.10;;;2.80;;
77409;SDS011;66481;51.332;22.804;2023-12-20T15:45:53;4.22;;;2.72;;
77409;SDS011;66481;51.332;22.804;2023-12-20T15:49:54;5.57;;;3.38;;
77409;SDS011;66481;51.332;22.804;2023-12-20T15:53:56;5.03;;;3.35;;
77409;SDS011;66481;51.332;22.804;2023-12-20T15:57:58;7.22;;;3.88;;
77409;SDS011;66481;51.332;22.804;2023-12-20T16:02:00;7.60;;;4.25;;
77409;SDS011;66481;51.332;22.804;2023-12-20T16:06:01;11.45;;;5.10;;
77409;SDS011;66481;51.332;22.804;2023-12-20T16:10:03;7.88;;;4.72;;
77409;SDS011;66481;51.332;22.804;2023-12-20T16:14:06;5.30;;;3.83;;
77409;SDS011;66481;51.332;22.804;2023-12-20T16:18:08;8.80;;;5.30;;
77409;SDS011;66481;51.332;22.804;2023-12-20T16:22:11;7.55;;;4.68;;
77409;SDS011;66481;51.332;22.804;2023-12-20T16:26:13;7.57;;;4.25;;
77409;SDS011;66481;51.332;22.804;2023-12-20T16:30:14;6.15;;;4.20;;
77409;SDS011;66481;51.332;22.804;2023-12-20T16:34:16;7.05;;;4.20;;
77409;SDS011;66481;51.332;22.804;2023-12-20T16:38:18;8.35;;;4.55;;
77409;SDS011;66481;51.332;22.804;2023-12-20T16:42:19;7.15;;;4.22;;
77409;SDS011;66481;51.332;22.804;2023-12-20T16:46:21;6.45;;;4.05;;
77409;SDS011;66481;51.332;22.804;2023-12-20T16:50:23;7.30;;;3.95;;
77409;SDS011;66481;51.332;22.804;2023-12-20T16:54:24;6.53;;;5.07;;
77409;SDS011;66481;51.332;22.804;2023-12-20T16:58:31;8.95;;;5.55;;
77409;SDS011;66481;51.332;22.804;2023-12-20T17:02:32;10.60;;;4.65;;
77409;SDS011;66481;51.332;22.804;2023-12-20T17:06:34;7.30;;;3.83;;
77409;SDS011;66481;51.332;22.804;2023-12-20T17:10:35;8.75;;;5.43;;
77409;SDS011;66481;51.332;22.804;2023-12-20T17:14:38;9.95;;;5.00;;
77409;SDS011;66481;51.332;22.804;2023-12-20T17:18:40;8.18;;;4.22;;
77409;SDS011;66481;51.332;22.804;2023-12-20T17:22:42;10.40;;;4.97;;
77409;SDS011;66481;51.332;22.804;2023-12-20T17:26:43;10.02;;;4.93;;
77409;SDS011;66481;51.332;22.804;2023-12-20T17:30:45;8.68;;;5.03;;
77409;SDS011;66481;51.332;22.804;2023-12-20T17:34:49;7.63;;;4.78;;
77409;SDS011;66481;51.332;22.804;2023-12-20T17:38:50;6.90;;;4.47;;
77409;SDS011;66481;51.332;22.804;2023-12-20T17:42:52;10.13;;;5.53;;
77409;SDS011;66481;51.332;22.804;2023-12-20T17:46:54;10.63;;;5.95;;
77409;SDS011;66481;51.332;22.804;2023-12-20T17:50:56;12.43;;;5.68;;
77409;SDS011;66481;51.332;22.804;2023-12-20T17:54:57;10.13;;;5.30;;
77409;SDS011;66481;51.332;22.804;2023-12-20T17:58:58;6.53;;;4.82;;
77409;SDS011;66481;51.332;22.804;2023-12-20T18:03:00;9.32;;;4.75;;
77409;SDS011;66481;51.332;22.804;2023-12-20T18:07:04;7.32;;;4.85;;
77409;SDS011;66481;51.332;22.804;2023-12-20T18:11:05;10.23;;;5.15;;
77409;SDS011;66481;51.332;22.804;2023-12-20T18:15:06;10.90;;;5.47;;
77409;SDS011;66481;51.332;22.804;2023-12-20T18:19:08;12.93;;;6.50;;
77409;SDS011;66481;51.332;22.804;2023-12-20T18:23:09;20.70;;;8.45;;
77409;SDS011;66481;51.332;22.804;2023-12-20T18:27:11;19.40;;;9.20;;
77409;SDS011;66481;51.332;22.804;2023-12-20T18:31:12;10.45;;;5.53;;
77409;SDS011;66481;51.332;22.804;2023-12-20T18:35:13;9.82;;;5.72;;
77409;SDS011;66481;51.332;22.804;2023-12-20T18:39:15;7.00;;;4.60;;
77409;SDS011;66481;51.332;22.804;2023-12-20T18:43:19;8.07;;;4.90;;
77409;SDS011;66481;51.332;22.804;2023-12-20T18:47:21;8.18;;;4.93;;
77409;SDS011;66481;51.332;22.804;2023-12-20T18:51:23;9.40;;;4.97;;
77409;SDS011;66481;51.332;22.804;2023-12-20T18:55:25;5.88;;;4.25;;
77409;SDS011;66481;51.332;22.804;2023-12-20T18:59:27;6.45;;;3.90;;
77409;SDS011;66481;51.332;22.804;2023-12-20T19:03:30;7.57;;;4.35;;
77409;SDS011;66481;51.332;22.804;2023-12-20T19:07:32;7.95;;;4.15;;
77409;SDS011;66481;51.332;22.804;2023-12-20T19:11:33;12.23;;;5.63;;
77409;SDS011;66481;51.332;22.804;2023-12-20T19:15:35;12.48;;;6.43;;
77409;SDS011;66481;51.332;22.804;2023-12-20T19:19:37;8.65;;;5.97;;
77409;SDS011;66481;51.332;22.804;2023-12-20T19:23:40;11.30;;;6.45;;
77409;SDS011;66481;51.332;22.804;2023-12-20T19:27:44;11.75;;;6.60;;
77409;SDS011;66481;51.332;22.804;2023-12-20T19:31:46;15.50;;;7.10;;
77409;SDS011;66481;51.332;22.804;2023-12-20T19:35:48;12.95;;;6.53;;
77409;SDS011;66481;51.332;22.804;2023-12-20T19:39:51;12.98;;;6.18;;
77409;SDS011;66481;51.332;22.804;2023-12-20T19:43:52;11.48;;;6.85;;
77409;SDS011;66481;51.332;22.804;2023-12-20T19:47:58;10.30;;;5.28;;
77409;SDS011;66481;51.332;22.804;2023-12-20T19:52:00;7.95;;;4.85;;
77409;SDS011;66481;51.332;22.804;2023-12-20T19:56:05;11.55;;;6.47;;
77409;SDS011;66481;51.332;22.804;2023-12-20T20:00:07;12.55;;;5.68;;
77409;SDS011;66481;51.332;22.804;2023-12-20T20:04:10;11.93;;;6.55;;
77409;SDS011;66481;51.332;22.804;2023-12-20T20:08:11;10.52;;;6.13;;
77409;SDS011;66481;51.332;22.804;2023-12-20T20:12:12;8.50;;;5.35;;
77409;SDS011;66481;51.332;22.804;2023-12-20T20:16:15;11.10;;;6.45;;
77409;SDS011;66481;51.332;22.804;2023-12-20T20:20:16;12.90;;;7.18;;
77409;SDS011;66481;51.332;22.804;2023-12-20T20:24:20;8.88;;;6.40;;
77409;SDS011;66481;51.332;22.804;2023-12-20T20:28:23;12.35;;;7.80;;
77409;SDS011;66481;51.332;22.804;2023-12-20T20:32:29;11.88;;;6.00;;
77409;SDS011;66481;51.332;22.804;2023-12-20T20:36:32;8.95;;;5.72;;
77409;SDS011;66481;51.332;22.804;2023-12-20T20:40:35;11.63;;;7.00;;
77409;SDS011;66481;51.332;22.804;2023-12-20T20:44:37;11.52;;;7.00;;
77409;SDS011;66481;51.332;22.804;2023-12-20T20:48:43;13.27;;;7.15;;
77409;SDS011;66481;51.332;22.804;2023-12-20T20:52:44;12.32;;;7.40;;
77409;SDS011;66481;51.332;22.804;2023-12-20T20:56:47;8.85;;;6.72;;
77409;SDS011;66481;51.332;22.804;2023-12-20T21:00:48;10.20;;;7.05;;
77409;SDS011;66481;51.332;22.804;2023-12-20T21:04:51;12.80;;;8.63;;
77409;SDS011;66481;51.332;22.804;2023-12-20T21:08:52;14.57;;;9.27;;
77409;SDS011;66481;51.332;22.804;2023-12-20T21:12:55;13.85;;;9.25;;
77409;SDS011;66481;51.332;22.804;2023-12-20T21:16:57;15.75;;;9.88;;
77409;SDS011;66481;51.332;22.804;2023-12-20T21:20:58;9.80;;;6.00;;
77409;SDS011;66481;51.332;22.804;2023-12-20T21:25:03;15.15;;;9.70;;
77409;SDS011;66481;51.332;22.804;2023-12-20T21:29:05;16.80;;;9.38;;
77409;SDS011;66481;51.332;22.804;2023-12-20T21:37:12;15.60;;;8.23;;
77409;SDS011;66481;51.332;22.804;2023-12-20T21:41:14;12.32;;;8.93;;
77409;SDS011;66481;51.332;22.804;2023-12-20T21:45:16;14.85;;;8.88;;
77409;SDS011;66481;51.332;22.804;2023-12-20T21:49:17;16.33;;;9.60;;
77409;SDS011;66481;51.332;22.804;2023-12-20T21:53:20;18.70;;;9.57;;
77409;SDS011;66481;51.332;22.804;2023-12-20T21:57:21;19.02;;;11.02;;
77409;SDS011;66481;51.332;22.804;2023-12-20T22:01:23;17.10;;;10.88;;
77409;SDS011;66481;51.332;22.804;2023-12-20T22:05:24;19.10;;;12.00;;
77409;SDS011;66481;51.332;22.804;2023-12-20T22:09:28;17.73;;;9.88;;
77409;SDS011;66481;51.332;22.804;2023-12-20T22:13:29;16.50;;;9.45;;
77409;SDS011;66481;51.332;22.804;2023-12-20T22:17:32;13.27;;;7.78;;
77409;SDS011;66481;51.332;22.804;2023-12-20T22:21:33;16.27;;;8.27;;
77409;SDS011;66481;51.332;22.804;2023-12-20T22:25:38;14.10;;;8.15;;
77409;SDS011;66481;51.332;22.804;2023-12-20T22:29:39;13.00;;;7.07;;
77409;SDS011;66481;51.332;22.804;2023-12-20T22:33:43;13.82;;;7.47;;
77409;SDS011;66481;51.332;22.804;2023-12-20T22:37:45;10.00;;;6.22;;
77409;SDS011;66481;51.332;22.804;2023-12-20T22:41:48;8.63;;;4.00;;
77409;SDS011;66481;51.332;22.804;2023-12-20T22:45:50;5.80;;;3.25;;
77409;SDS011;66481;51.332;22.804;2023-12-20T22:49:53;4.38;;;2.08;;
77409;SDS011;66481;51.332;22.804;2023-12-20T22:53:55;5.63;;;2.30;;
77409;SDS011;66481;51.332;22.804;2023-12-20T22:57:57;1.40;;;1.30;;
77409;SDS011;66481;51.332;22.804;2023-12-20T23:01:58;2.38;;;1.33;;
77409;SDS011;66481;51.332;22.804;2023-12-20T23:06:00;3.05;;;1.52;;
77409;SDS011;66481;51.332;22.804;2023-12-20T23:10:01;2.75;;;1.45;;
77409;SDS011;66481;51.332;22.804;2023-12-20T23:14:05;1.40;;;0.95;;
77409;SDS011;66481;51.332;22.804;2023-12-20T23:18:07;4.13;;;1.58;;
77409;SDS011;66481;51.332;22.804;2023-12-20T23:22:09;3.65;;;1.17;;
77409;SDS011;66481;51.332;22.804;2023-12-20T23:26:10;2.63;;;1.67;;
77409;SDS011;66481;51.332;22.804;2023-12-20T23:30:12;4.03;;;2.05;;
77409;SDS011;66481;51.332;22.804;2023-12-20T23:34:13;2.35;;;1.73;;
77409;SDS011;66481;51.332;22.804;2023-12-20T23:38:16;4.60;;;1.95;;
77409;SDS011;66481;51.332;22.804;2023-12-20T23:42:17;3.22;;;1.92;;
77409;SDS011;66481;51.332;22.804;2023-12-20T23:46:19;4.32;;;1.75;;
77409;SDS011;66481;51.332;22.804;2023-12-20T23:50:20;5.53;;;2.63;;
77409;SDS011;66481;51.332;22.804;2023-12-20T23:54:22;3.92;;;2.13;;
77409;SDS011;66481;51.332;22.804;2023-12-20T23:58:23;4.97;;;2.17;;
